createdAt,value
2022-11-18T00:00:49.796Z,-74.65
2022-11-18T00:01:49.878Z,-74.43
2022-11-18T00:02:49.761Z,-74.44
2022-11-18T00:03:52.834Z,-74.24
2022-11-18T00:04:52.754Z,-72.50
2022-11-18T00:05:49.752Z,-73.93
2022-11-18T00:06:49.733Z,-73.90
2022-11-18T00:07:49.731Z,-73.94
2022-11-18T00:08:49.690Z,-72.59
2022-11-18T00:09:49.742Z,-72.53
2022-11-18T00:10:49.662Z,-73.90
2022-11-18T00:11:49.675Z,-73.91
2022-11-18T00:12:49.636Z,-74.07
2022-11-18T00:13:49.670Z,-74.11
2022-11-18T00:14:49.616Z,-74.19
2022-11-18T00:15:49.653Z,-74.05
2022-11-18T00:16:49.583Z,-74.03
2022-11-18T00:17:49.593Z,-74.00
2022-11-18T00:18:49.556Z,-74.07
2022-11-18T00:19:49.675Z,-74.20
2022-11-18T00:20:49.535Z,-74.37
2022-11-18T00:21:49.544Z,-74.23
2022-11-18T00:22:49.506Z,-74.26
2022-11-18T00:23:52.544Z,-74.07
2022-11-18T00:24:52.524Z,-74.04
2022-11-18T00:25:49.496Z,-74.07
2022-11-18T00:26:49.528Z,-74.18
2022-11-18T00:27:49.469Z,-73.93
2022-11-18T00:28:49.432Z,-73.91
2022-11-18T00:29:49.447Z,-74.03
2022-11-18T00:30:49.427Z,-74.25
2022-11-18T00:31:49.479Z,-74.05
2022-11-18T00:32:49.384Z,-74.12
2022-11-18T00:33:49.401Z,-73.91
2022-11-18T00:34:49.353Z,-73.97
2022-11-18T00:35:49.361Z,-73.99
2022-11-18T00:36:49.381Z,-74.23
2022-11-18T00:37:49.348Z,-74.23
2022-11-18T00:38:49.299Z,-74.29
2022-11-18T00:39:49.311Z,-74.32
2022-11-18T00:40:49.272Z,-74.02
2022-11-18T00:41:49.281Z,-74.01
2022-11-18T00:42:49.297Z,-74.04
2022-11-18T00:43:52.262Z,-74.16
2022-11-18T00:44:52.238Z,-73.97
2022-11-18T00:45:49.231Z,-74.04
2022-11-18T00:46:49.224Z,-74.29
2022-11-18T00:47:49.233Z,-74.14
2022-11-18T00:48:49.170Z,-74.03
2022-11-18T00:49:49.183Z,-73.88
2022-11-18T00:50:49.146Z,-73.91
2022-11-18T00:51:49.188Z,-73.91
2022-11-18T00:52:49.122Z,-72.66
2022-11-18T00:53:49.194Z,-74.10
2022-11-18T00:54:49.135Z,-73.96
2022-11-18T00:55:49.103Z,-74.11
2022-11-18T00:56:49.064Z,-72.58
2022-11-18T00:57:49.077Z,-73.99
2022-11-18T00:58:49.048Z,-74.09
2022-11-18T00:59:49.048Z,-74.13
2022-11-18T01:00:49.134Z,-74.05
2022-11-18T01:01:49.290Z,-73.97
2022-11-18T01:02:49.007Z,-74.00
2022-11-18T01:03:51.996Z,-72.48
2022-11-18T01:04:51.978Z,-72.35
2022-11-18T01:05:48.975Z,-72.42
2022-11-18T01:06:48.957Z,-72.49
2022-11-18T01:07:48.946Z,-72.65
2022-11-18T01:08:48.907Z,-72.46
2022-11-18T01:09:48.964Z,-72.45
2022-11-18T01:10:48.909Z,-72.58
2022-11-18T01:11:48.929Z,-73.93
2022-11-18T01:12:53.032Z,-73.95
2022-11-18T01:13:49.880Z,-74.02
2022-11-18T01:14:48.889Z,-72.66
2022-11-18T01:15:48.840Z,-73.96
2022-11-18T01:16:48.799Z,-72.63
2022-11-18T01:17:48.809Z,-72.46
2022-11-18T01:18:48.781Z,-72.44
2022-11-18T01:19:48.788Z,-72.51
2022-11-18T01:20:48.795Z,-72.60
2022-11-18T01:21:48.819Z,-73.91
2022-11-18T01:22:48.720Z,-72.54
2022-11-18T01:23:51.736Z,-72.43
2022-11-18T01:24:51.711Z,-72.37
2022-11-18T01:25:48.725Z,-72.46
2022-11-18T01:26:48.671Z,-72.64
2022-11-18T01:27:48.711Z,-72.50
2022-11-18T01:28:48.672Z,-72.45
2022-11-18T01:29:48.657Z,-72.37
2022-11-18T01:30:48.624Z,-72.34
2022-11-18T01:32:22.251Z,-72.06
2022-11-18T01:32:49.647Z,-72.07
2022-11-18T01:33:48.601Z,-72.27
2022-11-18T01:34:48.562Z,-72.29
2022-11-18T01:35:48.572Z,-72.32
2022-11-18T01:36:48.543Z,-72.25
2022-11-18T01:37:48.543Z,-72.21
2022-11-18T01:38:48.542Z,-72.22
2022-11-18T01:39:48.671Z,-72.13
2022-11-18T01:40:48.482Z,-72.20
2022-11-18T01:41:48.494Z,-72.37
2022-11-18T01:42:48.463Z,-72.16
2022-11-18T01:43:51.472Z,-72.23
2022-11-18T01:44:51.506Z,-72.05
2022-11-18T01:45:48.444Z,-70.67
2022-11-18T01:46:48.410Z,-72.00
2022-11-18T01:47:48.414Z,-70.63
2022-11-18T01:48:48.390Z,-70.51
2022-11-18T01:49:48.394Z,-70.71
2022-11-18T01:50:48.388Z,-70.61
2022-11-18T01:51:48.369Z,-70.56
2022-11-18T01:52:51.644Z,-72.03
2022-11-18T01:53:48.339Z,-72.07
2022-11-18T01:54:48.313Z,-72.07
2022-11-18T01:55:48.316Z,-70.57
2022-11-18T01:56:48.334Z,-70.57
2022-11-18T01:57:48.288Z,-70.57
2022-11-18T01:58:48.247Z,-70.38
2022-11-18T01:59:48.267Z,-70.30
2022-11-18T02:00:48.219Z,-70.40
2022-11-18T02:01:48.257Z,-70.42
2022-11-18T02:02:48.232Z,-70.25
2022-11-18T02:03:51.205Z,-70.29
2022-11-18T02:04:51.177Z,-70.31
2022-11-18T02:05:48.178Z,-70.10
2022-11-18T02:06:48.228Z,-70.33
2022-11-18T02:07:48.148Z,-70.37
2022-11-18T02:08:48.117Z,-70.57
2022-11-18T02:09:48.119Z,-70.59
2022-11-18T02:10:48.087Z,-70.44
2022-11-18T02:11:48.154Z,-70.22
2022-11-18T02:12:48.097Z,-70.13
2022-11-18T02:13:48.070Z,-70.16
2022-11-18T02:14:48.030Z,-70.16
2022-11-18T02:15:48.041Z,-70.12
2022-11-18T02:16:48.016Z,-70.19
2022-11-18T02:17:48.071Z,-70.12
2022-11-18T02:18:47.983Z,-70.10
2022-11-18T02:19:47.992Z,-68.72
2022-11-18T02:20:47.979Z,-68.56
2022-11-18T02:21:47.963Z,-68.56
2022-11-18T02:22:47.931Z,-68.70
2022-11-18T02:23:50.969Z,-68.62
2022-11-18T02:24:50.911Z,-68.61
2022-11-18T02:25:47.923Z,-68.67
2022-11-18T02:26:47.882Z,-68.51
2022-11-18T02:27:47.885Z,-68.39
2022-11-18T02:28:47.890Z,-68.36
2022-11-18T02:29:47.864Z,-68.39
2022-11-18T02:30:47.824Z,-68.40
2022-11-18T02:31:47.833Z,-68.05
2022-11-18T02:32:47.793Z,-68.51
2022-11-18T02:33:47.814Z,-68.42
2022-11-18T02:34:47.828Z,-68.49
2022-11-18T02:35:47.773Z,-68.70
2022-11-18T02:36:47.737Z,-68.56
2022-11-18T02:37:47.742Z,-70.14
2022-11-18T02:38:47.714Z,-68.49
2022-11-18T02:39:47.728Z,-68.63
2022-11-18T02:40:47.734Z,-68.72
2022-11-18T02:41:47.698Z,-68.52
2022-11-18T02:42:47.665Z,-68.53
2022-11-18T02:43:50.671Z,-68.30
2022-11-18T02:44:50.646Z,-68.47
2022-11-18T02:45:47.646Z,-68.44
2022-11-18T02:46:47.666Z,-68.59
2022-11-18T02:47:47.636Z,-68.59
2022-11-18T02:48:47.577Z,-68.67
2022-11-18T02:49:47.585Z,-68.62
2022-11-18T02:50:47.549Z,-68.16
2022-11-18T02:51:47.557Z,-67.91
2022-11-18T02:52:47.547Z,-66.83
2022-11-18T02:53:47.546Z,-66.72
2022-11-18T02:54:47.499Z,-66.68
2022-11-18T02:55:47.507Z,-66.61
2022-11-18T02:56:47.466Z,-66.87
2022-11-18T02:57:47.542Z,-66.86
2022-11-18T02:58:47.443Z,-66.82
2022-11-18T02:59:47.457Z,-66.68
2022-11-18T03:00:47.420Z,-66.73
2022-11-18T03:01:47.452Z,-66.66
2022-11-18T03:02:47.396Z,-66.78
2022-11-18T03:03:50.421Z,-66.76
2022-11-18T03:04:50.395Z,-66.65
2022-11-18T03:05:47.372Z,-66.61
2022-11-18T03:06:47.331Z,-66.72
2022-11-18T03:07:47.352Z,-66.82
2022-11-18T03:08:47.330Z,-66.82
2022-11-18T03:09:47.334Z,-66.62
2022-11-18T03:10:47.280Z,-66.03
2022-11-18T03:11:47.292Z,-66.43
2022-11-18T03:12:47.324Z,-66.51
2022-11-18T03:13:47.260Z,-66.58
2022-11-18T03:14:47.230Z,-66.27
2022-11-18T03:15:47.255Z,-66.16
2022-11-18T03:16:47.201Z,-66.08
2022-11-18T03:17:47.209Z,-66.37
2022-11-18T03:18:47.203Z,-66.61
2022-11-18T03:19:47.183Z,-66.46
2022-11-18T03:20:47.145Z,-66.14
2022-11-18T03:21:47.153Z,-66.06
2022-11-18T03:22:47.143Z,-66.19
2022-11-18T03:23:50.141Z,-66.12
2022-11-18T03:24:50.111Z,-66.46
2022-11-18T03:25:47.104Z,-66.28
2022-11-18T03:26:47.069Z,-66.31
2022-11-18T03:27:47.105Z,-65.54
2022-11-18T03:28:47.037Z,-65.91
2022-11-18T03:29:47.046Z,-64.90
2022-11-18T03:30:47.015Z,-64.36
2022-11-18T03:31:47.035Z,-65.04
2022-11-18T03:32:47.006Z,-65.04
2022-11-18T03:33:46.994Z,-64.93
2022-11-18T03:34:46.983Z,-65.02
2022-11-18T03:35:46.975Z,-64.37
2022-11-18T03:36:51.626Z,-64.42
2022-11-18T03:37:47.985Z,-64.49
2022-11-18T03:38:46.905Z,-64.10
2022-11-18T03:39:46.982Z,-63.19
2022-11-18T03:40:46.875Z,-62.91
2022-11-18T03:41:46.895Z,-63.82
2022-11-18T03:42:46.865Z,-63.26
2022-11-18T03:43:49.855Z,-64.08
2022-11-18T03:44:52.496Z,-63.53
2022-11-18T03:45:46.835Z,-63.07
2022-11-18T03:46:46.797Z,-63.44
2022-11-18T03:47:46.819Z,-63.64
2022-11-18T03:48:46.767Z,-63.22
2022-11-18T03:49:46.778Z,-63.25
2022-11-18T03:50:46.780Z,-63.71
2022-11-18T03:51:46.788Z,-64.03
2022-11-18T03:52:46.718Z,-63.80
2022-11-18T03:53:46.731Z,-63.26
2022-11-18T03:54:46.689Z,-63.05
2022-11-18T03:55:46.706Z,-63.55
2022-11-18T03:56:46.661Z,-63.83
2022-11-18T03:57:46.709Z,-63.47
2022-11-18T03:58:46.630Z,-63.66
2022-11-18T03:59:46.639Z,-64.36
2022-11-18T04:00:46.635Z,-64.06
2022-11-18T04:01:46.659Z,-64.23
2022-11-18T04:02:46.584Z,-64.07
2022-11-18T04:03:49.648Z,-64.19
2022-11-18T04:04:49.572Z,-63.47
2022-11-18T04:05:46.559Z,-64.27
2022-11-18T04:06:46.523Z,-64.53
2022-11-18T04:07:46.591Z,-63.69
2022-11-18T04:08:46.501Z,-63.26
2022-11-18T04:09:46.540Z,-63.57
2022-11-18T04:10:46.492Z,-63.17
2022-11-18T04:11:46.465Z,-63.54
2022-11-18T04:12:46.472Z,-63.94
2022-11-18T04:13:46.431Z,-63.61
2022-11-18T04:14:46.445Z,-63.43
2022-11-18T04:15:46.460Z,-63.57
2022-11-18T04:16:46.413Z,-63.69
2022-11-18T04:17:46.374Z,-63.86
2022-11-18T04:18:46.394Z,-64.11
2022-11-18T04:19:46.356Z,-63.66
2022-11-18T04:20:46.388Z,-63.01
2022-11-18T04:21:46.324Z,-63.73
2022-11-18T04:22:46.351Z,-64.23
2022-11-18T04:23:49.294Z,-64.45
2022-11-18T04:24:49.323Z,-64.29
2022-11-18T04:25:46.304Z,-64.35
2022-11-18T04:26:46.284Z,-64.54
2022-11-18T04:27:46.255Z,-64.07
2022-11-18T04:28:46.254Z,-64.52
2022-11-18T04:29:46.226Z,-64.56
2022-11-18T04:30:46.228Z,-64.12
2022-11-18T04:31:46.263Z,-64.11
2022-11-18T04:32:46.205Z,-63.78
2022-11-18T04:33:46.165Z,-63.78
2022-11-18T04:34:46.183Z,-63.82
2022-11-18T04:35:46.136Z,-63.60
2022-11-18T04:36:46.156Z,-63.39
2022-11-18T04:37:46.157Z,-62.60
2022-11-18T04:38:46.116Z,-62.39
2022-11-18T04:39:46.089Z,-62.80
2022-11-18T04:40:46.099Z,-62.58
2022-11-18T04:41:46.066Z,-62.85
2022-11-18T04:42:46.069Z,-62.03
2022-11-18T04:43:49.077Z,-62.01
2022-11-18T04:44:49.067Z,-62.20
2022-11-18T04:45:45.998Z,-61.38
2022-11-18T04:46:46.007Z,-62.19
2022-11-18T04:47:45.986Z,-62.32
2022-11-18T04:48:45.988Z,-62.19
2022-11-18T04:49:46.007Z,-62.39
2022-11-18T04:50:45.967Z,-62.85
2022-11-18T04:51:45.919Z,-63.02
2022-11-18T04:52:45.950Z,-62.28
2022-11-18T04:53:45.919Z,-62.40
2022-11-18T04:54:45.909Z,-62.38
2022-11-18T04:55:45.899Z,-61.33
2022-11-18T04:56:49.322Z,-61.54
2022-11-18T04:57:45.840Z,-62.21
2022-11-18T04:58:45.851Z,-62.31
2022-11-18T04:59:45.820Z,-62.85
2022-11-18T05:00:45.821Z,-62.28
2022-11-18T05:01:45.934Z,-62.63
2022-11-18T05:02:45.822Z,-62.55
2022-11-18T05:03:50.723Z,-61.02
2022-11-18T05:04:48.782Z,-60.95
2022-11-18T05:05:45.760Z,-61.27
2022-11-18T05:06:45.740Z,-60.61
2022-11-18T05:07:45.807Z,-60.99
2022-11-18T05:08:45.728Z,-61.08
2022-11-18T05:09:45.688Z,-60.95
2022-11-18T05:10:45.718Z,-60.53
2022-11-18T05:11:45.654Z,-59.90
2022-11-18T05:12:45.672Z,-60.24
2022-11-18T05:13:45.677Z,-60.12
2022-11-18T05:14:50.010Z,-60.60
2022-11-18T05:15:46.604Z,-60.32
2022-11-18T05:16:45.620Z,-60.42
2022-11-18T05:17:45.580Z,-60.77
2022-11-18T05:18:45.594Z,-60.93
2022-11-18T05:19:45.611Z,-60.88
2022-11-18T05:20:45.563Z,-60.43
2022-11-18T05:21:45.532Z,-60.37
2022-11-18T05:22:45.542Z,-59.85
2022-11-18T05:23:48.495Z,-59.92
2022-11-18T05:24:48.556Z,-60.25
2022-11-18T05:25:45.503Z,-59.84
2022-11-18T05:26:45.486Z,-59.95
2022-11-18T05:27:45.456Z,-59.84
2022-11-18T05:28:45.453Z,-60.23
2022-11-18T05:29:45.426Z,-59.62
2022-11-18T05:30:45.475Z,-59.21
2022-11-18T05:31:45.405Z,-59.42
2022-11-18T05:32:45.408Z,-59.44
2022-11-18T05:33:45.369Z,-60.15
2022-11-18T05:34:45.375Z,-60.00
2022-11-18T05:35:45.336Z,-60.29
2022-11-18T05:36:45.376Z,-59.34
2022-11-18T05:37:45.378Z,-58.53
2022-11-18T05:38:45.317Z,-58.97
2022-11-18T05:39:45.289Z,-59.82
2022-11-18T05:40:45.297Z,-59.39
2022-11-18T05:41:45.257Z,-59.16
2022-11-18T05:42:45.267Z,-59.45
2022-11-18T05:43:48.281Z,-59.36
2022-11-18T05:44:51.823Z,-59.53
2022-11-18T05:45:46.207Z,-59.61
2022-11-18T05:46:45.212Z,-60.26
2022-11-18T05:47:45.180Z,-60.09
2022-11-18T05:48:45.193Z,-60.28
2022-11-18T05:49:45.199Z,-60.11
2022-11-18T05:50:45.174Z,-60.12
2022-11-18T05:51:45.121Z,-60.01
2022-11-18T05:52:45.129Z,-59.07
2022-11-18T05:53:45.112Z,-60.11
2022-11-18T05:54:45.111Z,-60.65
2022-11-18T05:55:45.106Z,-60.02
2022-11-18T05:56:45.084Z,-60.35
2022-11-18T05:57:45.044Z,-60.75
2022-11-18T05:58:45.051Z,-59.27
2022-11-18T05:59:45.013Z,-59.11
2022-11-18T06:00:45.032Z,-59.37
2022-11-18T06:01:45.028Z,-59.19
2022-11-18T06:02:45.036Z,-59.14
2022-11-18T06:03:47.969Z,-58.33
2022-11-18T06:04:47.983Z,-58.05
2022-11-18T06:05:44.932Z,-58.20
2022-11-18T06:06:44.942Z,-58.03
2022-11-18T06:07:44.992Z,-58.48
2022-11-18T06:08:44.954Z,-58.72
2022-11-18T06:09:44.889Z,-58.75
2022-11-18T06:10:44.895Z,-58.58
2022-11-18T06:11:44.855Z,-59.15
2022-11-18T06:12:44.877Z,-58.26
2022-11-18T06:13:44.855Z,-58.08
2022-11-18T06:14:44.853Z,-57.97
2022-11-18T06:15:44.814Z,-57.55
2022-11-18T06:16:44.816Z,-57.21
2022-11-18T06:17:44.774Z,-57.76
2022-11-18T06:18:44.815Z,-57.78
2022-11-18T06:19:44.752Z,-57.57
2022-11-18T06:20:44.771Z,-57.67
2022-11-18T06:21:44.726Z,-57.44
2022-11-18T06:22:46.687Z,-57.35
2022-11-18T06:23:47.705Z,-57.02
2022-11-18T06:24:47.723Z,-56.85
2022-11-18T06:25:44.667Z,-56.48
2022-11-18T06:26:44.676Z,-56.77
2022-11-18T06:27:44.644Z,-55.80
2022-11-18T06:28:44.711Z,-56.37
2022-11-18T06:29:44.617Z,-56.61
2022-11-18T06:30:44.645Z,-55.89
2022-11-18T06:31:44.589Z,-55.62
2022-11-18T06:32:44.607Z,-54.95
2022-11-18T06:33:44.565Z,-55.34
2022-11-18T06:34:44.628Z,-55.77
2022-11-18T06:35:44.540Z,-55.24
2022-11-18T06:36:44.550Z,-55.77
2022-11-18T06:37:44.514Z,-55.49
2022-11-18T06:38:44.517Z,-55.16
2022-11-18T06:39:44.496Z,-55.52
2022-11-18T06:40:44.549Z,-55.66
2022-11-18T06:41:44.460Z,-55.06
2022-11-18T06:42:44.516Z,-54.29
2022-11-18T06:43:47.442Z,-53.58
2022-11-18T06:44:47.590Z,-53.36
2022-11-18T06:45:44.401Z,-53.65
2022-11-18T06:46:44.437Z,-53.78
2022-11-18T06:47:44.384Z,-54.26
2022-11-18T06:48:44.379Z,-54.58
2022-11-18T06:49:44.351Z,-55.31
2022-11-18T06:50:44.420Z,-55.37
2022-11-18T06:51:44.320Z,-55.71
2022-11-18T06:52:44.338Z,-55.35
2022-11-18T06:53:44.303Z,-55.10
2022-11-18T06:54:44.320Z,-54.55
2022-11-18T06:55:44.327Z,-54.94
2022-11-18T06:56:44.335Z,-55.15
2022-11-18T06:57:44.241Z,-54.68
2022-11-18T06:58:44.251Z,-53.65
2022-11-18T06:59:44.275Z,-53.17
2022-11-18T07:00:44.301Z,-53.17
2022-11-18T07:01:44.192Z,-52.94
2022-11-18T07:02:44.272Z,-53.30
2022-11-18T07:03:47.163Z,-53.21
2022-11-18T07:04:47.186Z,-53.49
2022-11-18T07:05:44.134Z,-53.68
2022-11-18T07:06:44.168Z,-54.15
2022-11-18T07:07:44.274Z,-54.14
2022-11-18T07:08:44.172Z,-54.21
2022-11-18T07:09:44.074Z,-53.85
2022-11-18T07:10:44.102Z,-54.55
2022-11-18T07:11:44.055Z,-54.41
2022-11-18T07:12:44.068Z,-54.41
2022-11-18T07:13:44.200Z,-54.50
2022-11-18T07:14:44.119Z,-54.49
2022-11-18T07:15:44.004Z,-54.26
2022-11-18T07:16:44.015Z,-53.73
2022-11-18T07:17:43.984Z,-53.88
2022-11-18T07:18:44.005Z,-53.53
2022-11-18T07:19:43.946Z,-53.57
2022-11-18T07:20:44.053Z,-53.73
2022-11-18T07:21:43.929Z,-53.67
2022-11-18T07:22:43.945Z,-53.26
2022-11-18T07:23:46.897Z,-53.17
2022-11-18T07:24:46.916Z,-52.75
2022-11-18T07:25:45.437Z,-52.81
2022-11-18T07:26:43.916Z,-52.92
2022-11-18T07:27:43.839Z,-53.62
2022-11-18T07:28:43.865Z,-53.12
2022-11-18T07:29:43.808Z,-53.32
2022-11-18T07:30:43.829Z,-53.61
2022-11-18T07:31:43.830Z,-53.17
2022-11-18T07:32:43.798Z,-53.18
2022-11-18T07:33:43.769Z,-53.24
2022-11-18T07:34:43.769Z,-51.85
2022-11-18T07:35:43.745Z,-51.09
2022-11-18T07:36:43.746Z,-51.58
2022-11-18T07:37:43.900Z,-51.49
2022-11-18T07:38:43.733Z,-51.40
2022-11-18T07:39:43.679Z,-51.50
2022-11-18T07:40:43.698Z,-50.40
2022-11-18T07:41:43.663Z,-50.58
2022-11-18T07:42:43.677Z,-50.53
2022-11-18T07:43:46.681Z,-51.03
2022-11-18T07:44:46.652Z,-51.39
2022-11-18T07:45:43.599Z,-51.89
2022-11-18T07:46:43.612Z,-52.41
2022-11-18T07:47:43.582Z,-52.10
2022-11-18T07:48:43.581Z,-52.06
2022-11-18T07:49:43.578Z,-52.20
2022-11-18T07:50:47.181Z,-50.23
2022-11-18T07:51:43.530Z,-50.53
2022-11-18T07:52:43.531Z,-50.27
2022-11-18T07:53:43.502Z,-50.31
2022-11-18T07:54:43.502Z,-50.68
2022-11-18T07:55:43.540Z,-50.59
2022-11-18T07:56:43.484Z,-50.70
2022-11-18T07:57:43.445Z,-50.50
2022-11-18T07:58:43.475Z,-50.60
2022-11-18T07:59:43.412Z,-50.00
2022-11-18T08:00:43.447Z,-49.55
2022-11-18T08:01:43.527Z,-49.68
2022-11-18T08:02:43.402Z,-49.98
2022-11-18T08:03:46.354Z,-49.42
2022-11-18T08:04:46.480Z,-49.07
2022-11-18T08:05:43.333Z,-49.21
2022-11-18T08:06:43.346Z,-50.30
2022-11-18T08:07:43.399Z,-50.38
2022-11-18T08:08:43.322Z,-49.94
2022-11-18T08:09:43.294Z,-50.04
2022-11-18T08:10:43.293Z,-49.63
2022-11-18T08:11:43.254Z,-49.74
2022-11-18T08:12:43.310Z,-49.90
2022-11-18T08:13:43.233Z,-49.46
2022-11-18T08:14:43.238Z,-48.78
2022-11-18T08:15:43.205Z,-48.25
2022-11-18T08:16:43.216Z,-48.40
2022-11-18T08:17:43.226Z,-48.36
2022-11-18T08:18:43.185Z,-48.72
2022-11-18T08:19:43.148Z,-48.71
2022-11-18T08:20:43.164Z,-48.82
2022-11-18T08:21:43.122Z,-49.21
2022-11-18T08:22:43.134Z,-48.91
2022-11-18T08:23:46.146Z,-48.18
2022-11-18T08:24:46.118Z,-47.85
2022-11-18T08:25:43.106Z,-47.71
2022-11-18T08:26:43.056Z,-48.65
2022-11-18T08:27:43.077Z,-48.72
2022-11-18T08:28:43.073Z,-47.61
2022-11-18T08:29:43.073Z,-46.72
2022-11-18T08:30:43.007Z,-47.79
2022-11-18T08:31:43.012Z,-47.83
2022-11-18T08:32:43.007Z,-48.27
2022-11-18T08:33:43.009Z,-48.53
2022-11-18T08:34:43.008Z,-48.38
2022-11-18T08:35:42.966Z,-47.08
2022-11-18T08:36:42.928Z,-47.50
2022-11-18T08:37:42.953Z,-47.64
2022-11-18T08:38:42.906Z,-48.48
2022-11-18T08:39:42.908Z,-47.75
2022-11-18T08:40:42.911Z,-47.45
2022-11-18T08:41:42.955Z,-46.84
2022-11-18T08:42:42.848Z,-47.43
2022-11-18T08:43:45.853Z,-47.96
2022-11-18T08:44:45.832Z,-48.00
2022-11-18T08:45:42.839Z,-48.09
2022-11-18T08:46:42.789Z,-48.42
2022-11-18T08:47:42.850Z,-48.85
2022-11-18T08:48:42.767Z,-48.91
2022-11-18T08:49:42.778Z,-48.21
2022-11-18T08:50:42.783Z,-47.85
2022-11-18T08:51:42.741Z,-47.77
2022-11-18T08:52:42.737Z,-47.72
2022-11-18T08:53:42.773Z,-47.63
2022-11-18T08:54:43.671Z,-46.80
2022-11-18T08:55:42.705Z,-47.43
2022-11-18T08:56:42.671Z,-47.43
2022-11-18T08:57:42.672Z,-47.74
2022-11-18T08:58:42.642Z,-47.89
2022-11-18T08:59:42.704Z,-47.93
2022-11-18T09:00:42.605Z,-47.92
2022-11-18T09:01:42.684Z,-48.00
2022-11-18T09:02:42.581Z,-47.84
2022-11-18T09:03:45.600Z,-47.94
2022-11-18T09:04:45.593Z,-48.24
2022-11-18T09:05:42.599Z,-48.49
2022-11-18T09:06:42.565Z,-49.22
2022-11-18T09:07:42.597Z,-49.37
2022-11-18T09:08:42.549Z,-48.93
2022-11-18T09:09:42.514Z,-48.35
2022-11-18T09:10:42.504Z,-48.62
2022-11-18T09:11:42.489Z,-48.69
2022-11-18T09:12:42.480Z,-48.84
2022-11-18T09:14:14.392Z,-49.04
2022-11-18T09:15:14.166Z,-49.42
2022-11-18T09:15:43.435Z,-49.94
2022-11-18T09:16:42.395Z,-50.35
2022-11-18T09:17:42.405Z,-50.55
2022-11-18T09:18:42.388Z,-50.34
2022-11-18T09:19:49.526Z,-50.58
2022-11-18T09:20:43.349Z,-50.21
2022-11-18T09:21:42.406Z,-50.49
2022-11-18T09:22:42.317Z,-49.68
2022-11-18T09:23:45.331Z,-49.34
2022-11-18T09:24:45.297Z,-48.46
2022-11-18T09:25:42.307Z,-48.77
2022-11-18T09:26:42.267Z,-48.66
2022-11-18T09:27:42.327Z,-48.31
2022-11-18T09:28:42.238Z,-48.44
2022-11-18T09:29:42.256Z,-48.25
2022-11-18T09:30:42.209Z,-49.25
2022-11-18T09:31:42.226Z,-49.71
2022-11-18T09:32:42.178Z,-49.24
2022-11-18T09:33:42.219Z,-49.03
2022-11-18T09:34:42.158Z,-48.87
2022-11-18T09:35:42.177Z,-48.49
2022-11-18T09:36:42.163Z,-49.31
2022-11-18T09:37:42.140Z,-49.27
2022-11-18T09:38:42.112Z,-49.01
2022-11-18T09:39:42.111Z,-49.03
2022-11-18T09:40:42.120Z,-48.89
2022-11-18T09:41:42.089Z,-48.61
2022-11-18T09:42:42.050Z,-49.54
2022-11-18T09:43:45.061Z,-49.51
2022-11-18T09:44:45.041Z,-49.71
2022-11-18T09:45:42.030Z,-49.98
2022-11-18T09:46:42.059Z,-50.86
2022-11-18T09:47:42.022Z,-51.32
2022-11-18T09:48:42.012Z,-50.75
2022-11-18T09:49:41.982Z,-51.05
2022-11-18T09:50:49.639Z,-51.29
2022-11-18T09:51:42.983Z,-51.48
2022-11-18T09:52:41.924Z,-50.75
2022-11-18T09:53:41.931Z,-50.98
2022-11-18T09:54:41.901Z,-51.47
2022-11-18T09:55:41.906Z,-51.15
2022-11-18T09:56:41.971Z,-51.30
2022-11-18T09:57:41.882Z,-51.52
2022-11-18T09:58:41.844Z,-52.09
2022-11-18T09:59:41.853Z,-53.31
2022-11-18T10:00:41.834Z,-53.48
2022-11-18T10:01:41.908Z,-53.65
2022-11-18T10:02:41.783Z,-53.37
2022-11-18T10:03:44.827Z,-52.39
2022-11-18T10:04:44.785Z,-52.67
2022-11-18T10:05:41.774Z,-51.66
2022-11-18T10:06:41.783Z,-51.94
2022-11-18T10:07:41.830Z,-51.35
2022-11-18T10:08:41.706Z,-51.24
2022-11-18T10:09:41.719Z,-51.86
2022-11-18T10:10:41.696Z,-51.97
2022-11-18T10:11:44.223Z,-51.13
2022-11-18T10:12:41.652Z,-50.30
2022-11-18T10:13:41.666Z,-50.22
2022-11-18T10:14:41.625Z,-50.68
2022-11-18T10:15:41.646Z,-51.46
2022-11-18T10:16:41.626Z,-50.45
2022-11-18T10:17:41.656Z,-51.03
2022-11-18T10:19:42.596Z,-50.13
2022-11-18T10:20:41.558Z,-50.01
2022-11-18T10:21:41.573Z,-50.05
2022-11-18T10:22:41.517Z,-49.59
2022-11-18T10:23:44.567Z,-49.27
2022-11-18T10:24:44.516Z,-49.63
2022-11-18T10:25:41.533Z,-49.37
2022-11-18T10:26:41.470Z,-49.87
2022-11-18T10:27:41.511Z,-50.34
2022-11-18T10:28:41.445Z,-50.18
2022-11-18T10:29:41.500Z,-49.16
2022-11-18T10:30:41.438Z,-48.78
2022-11-18T10:31:41.481Z,-48.44
2022-11-18T10:32:41.399Z,-48.10
2022-11-18T10:33:41.412Z,-48.03
2022-11-18T10:34:41.400Z,-48.35
2022-11-18T10:35:41.420Z,-48.00
2022-11-18T10:36:41.329Z,-47.71
2022-11-18T10:38:09.369Z,-47.51
2022-11-18T10:38:46.909Z,-47.59
2022-11-18T10:39:42.321Z,-48.39
2022-11-18T10:40:41.291Z,-48.93
2022-11-18T10:41:41.325Z,-49.04
2022-11-18T10:42:41.470Z,-48.57
2022-11-18T10:43:44.304Z,-48.23
2022-11-18T10:44:44.255Z,-48.61
2022-11-18T10:45:41.286Z,-49.21
2022-11-18T10:46:41.203Z,-49.52
2022-11-18T10:47:41.225Z,-49.56
2022-11-18T10:48:41.181Z,-48.28
2022-11-18T10:49:41.190Z,-48.10
2022-11-18T10:50:41.157Z,-48.38
2022-11-18T10:51:41.190Z,-48.70
2022-11-18T10:52:41.153Z,-48.53
2022-11-18T10:53:41.132Z,-48.36
2022-11-18T10:54:41.104Z,-48.87
2022-11-18T10:55:42.077Z,-48.52
2022-11-18T10:56:41.145Z,-48.19
2022-11-18T10:57:41.102Z,-47.64
2022-11-18T10:58:41.073Z,-46.97
2022-11-18T10:59:41.087Z,-47.00
2022-11-18T11:00:41.025Z,-47.51
2022-11-18T11:01:41.073Z,-46.35
2022-11-18T11:02:41.050Z,-47.83
2022-11-18T11:03:44.016Z,-48.75
2022-11-18T11:04:43.980Z,-48.78
2022-11-18T11:05:40.986Z,-48.38
2022-11-18T11:06:40.989Z,-47.91
2022-11-18T11:07:40.992Z,-45.85
2022-11-18T11:08:40.938Z,-45.70
2022-11-18T11:09:40.954Z,-46.21
2022-11-18T11:10:40.885Z,-44.75
2022-11-18T11:11:40.896Z,-44.82
2022-11-18T11:12:40.867Z,-44.37
2022-11-18T11:13:40.891Z,-44.24
2022-11-18T11:14:40.856Z,-45.60
2022-11-18T11:15:40.890Z,-45.44
2022-11-18T11:16:40.815Z,-45.30
2022-11-18T11:17:40.902Z,-46.43
2022-11-18T11:18:40.783Z,-46.90
2022-11-18T11:19:40.805Z,-47.26
2022-11-18T11:20:40.769Z,-46.92
2022-11-18T11:21:40.784Z,-47.04
2022-11-18T11:22:40.734Z,-46.97
2022-11-18T11:23:43.715Z,-47.85
2022-11-18T11:24:43.766Z,-47.79
2022-11-18T11:28:41.645Z,-47.59
2022-11-18T11:29:40.696Z,-47.41
2022-11-18T11:30:43.580Z,-46.97
2022-11-18T11:31:40.606Z,-46.74
2022-11-18T11:32:40.601Z,-46.17
2022-11-18T11:33:40.577Z,-46.62
2022-11-18T11:34:40.576Z,-46.52
2022-11-18T11:35:40.658Z,-46.88
2022-11-18T11:36:40.569Z,-46.70
2022-11-18T11:37:40.552Z,-47.75
2022-11-18T11:38:40.507Z,-46.53
2022-11-18T11:39:40.499Z,-46.58
2022-11-18T11:40:40.498Z,-46.81
2022-11-18T11:41:40.500Z,-46.34
2022-11-18T11:42:40.475Z,-45.51
2022-11-18T11:43:43.438Z,-46.21
2022-11-18T11:44:43.444Z,-45.59
2022-11-18T11:45:40.470Z,-46.22
2022-11-18T11:46:40.399Z,-45.73
2022-11-18T11:47:40.400Z,-45.53
2022-11-18T11:48:40.396Z,-45.62
2022-11-18T11:49:40.370Z,-45.45
2022-11-18T11:50:40.350Z,-45.76
2022-11-18T11:51:40.361Z,-44.77
2022-11-18T11:52:40.322Z,-45.84
2022-11-18T11:53:40.392Z,-46.48
2022-11-18T11:54:40.290Z,-46.19
2022-11-18T11:55:40.281Z,-45.47
2022-11-18T11:56:40.302Z,-45.02
2022-11-18T11:57:40.259Z,-45.63
2022-11-18T11:58:40.240Z,-45.76
2022-11-18T11:59:40.259Z,-46.34
2022-11-18T12:00:40.222Z,-45.88
2022-11-18T12:01:40.220Z,-46.17
2022-11-18T12:02:40.338Z,-44.78
2022-11-18T12:03:46.053Z,-45.86
2022-11-18T12:04:44.183Z,-45.51
2022-11-18T12:05:40.152Z,-46.94
2022-11-18T12:06:40.166Z,-45.51
2022-11-18T12:07:40.187Z,-46.01
2022-11-18T12:08:40.147Z,-45.91
2022-11-18T12:09:40.116Z,-46.09
2022-11-18T12:10:40.087Z,-46.49
2022-11-18T12:11:40.105Z,-47.08
2022-11-18T12:12:40.067Z,-47.98
2022-11-18T12:13:40.123Z,-48.74
2022-11-18T12:14:40.205Z,-49.83
2022-11-18T12:15:40.044Z,-49.10
2022-11-18T12:16:40.050Z,-49.75
2022-11-18T12:17:40.008Z,-49.58
2022-11-18T12:18:40.026Z,-50.54
2022-11-18T12:19:39.982Z,-51.24
2022-11-18T12:20:39.967Z,-51.94
2022-11-18T12:21:39.948Z,-52.56
2022-11-18T12:22:39.945Z,-52.00
2022-11-18T12:23:42.938Z,-51.68
2022-11-18T12:24:42.908Z,-51.50
2022-11-18T12:25:39.888Z,-51.11
2022-11-18T12:26:39.868Z,-50.51
2022-11-18T12:27:39.914Z,-51.46
2022-11-18T12:28:39.846Z,-51.03
2022-11-18T12:29:39.835Z,-51.55
2022-11-18T12:30:39.830Z,-51.54
2022-11-18T12:31:39.851Z,-52.18
2022-11-18T12:32:39.789Z,-52.84